sensor_id;sensor_type;location;lat;lon;timestamp;P1;durP1;ratioP1;P2;durP2;ratioP2
14738;SDS011;7461;52.440;13.540;2023-09-08T00:01:38;15.82;;;14.48;;
14738;SDS011;7461;52.440;13.540;2023-09-08T00:04:05;15.38;;;14.30;;
14738;SDS011;7461;52.440;13.540;2023-09-08T00:06:33;12.55;;;11.75;;
14738;SDS011;7461;52.440;13.540;2023-09-08T00:09:02;14.30;;;13.32;;
14738;SDS011;7461;52.440;13.540;2023-09-08T00:11:29;14.27;;;13.25;;
14738;SDS011;7461;52.440;13.540;2023-09-08T00:13:58;14.82;;;13.82;;
14738;SDS011;7461;52.440;13.540;2023-09-08T00:16:26;14.32;;;13.30;;
14738;SDS011;7461;52.440;13.540;2023-09-08T00:18:54;14.43;;;13.35;;
14738;SDS011;7461;52.440;13.540;2023-09-08T00:21:22;17.25;;;16.05;;
14738;SDS011;7461;52.440;13.540;2023-09-08T00:23:49;14.38;;;13.55;;
14738;SDS011;7461;52.440;13.540;2023-09-08T00:26:17;15.52;;;14.52;;
14738;SDS011;7461;52.440;13.540;2023-09-08T00:28:44;14.68;;;13.38;;
14738;SDS011;7461;52.440;13.540;2023-09-08T00:31:13;15.77;;;14.77;;
14738;SDS011;7461;52.440;13.540;2023-09-08T00:33:40;14.65;;;13.60;;
14738;SDS011;7461;52.440;13.540;2023-09-08T00:36:09;14.82;;;13.88;;
14738;SDS011;7461;52.440;13.540;2023-09-08T00:38:36;14.13;;;13.23;;
14738;SDS011;7461;52.440;13.540;2023-09-08T00:41:04;15.00;;;14.00;;
14738;SDS011;7461;52.440;13.540;2023-09-08T00:43:31;15.27;;;14.35;;
14738;SDS011;7461;52.440;13.540;2023-09-08T00:45:59;15.00;;;14.10;;
14738;SDS011;7461;52.440;13.540;2023-09-08T00:48:29;16.00;;;14.65;;
14738;SDS011;7461;52.440;13.540;2023-09-08T00:50:56;15.65;;;14.38;;
14738;SDS011;7461;52.440;13.540;2023-09-08T00:53:24;16.42;;;15.10;;
14738;SDS011;7461;52.440;13.540;2023-09-08T00:55:52;15.85;;;14.85;;
14738;SDS011;7461;52.440;13.540;2023-09-08T00:58:19;15.43;;;14.38;;
14738;SDS011;7461;52.440;13.540;2023-09-08T01:00:47;15.70;;;14.48;;
14738;SDS011;7461;52.440;13.540;2023-09-08T01:03:14;15.93;;;14.55;;
14738;SDS011;7461;52.440;13.540;2023-09-08T01:05:43;15.65;;;14.65;;
14738;SDS011;7461;52.440;13.540;2023-09-08T01:08:11;15.82;;;14.75;;
14738;SDS011;7461;52.440;13.540;2023-09-08T01:10:40;16.70;;;15.45;;
14738;SDS011;7461;52.440;13.540;2023-09-08T01:13:08;15.32;;;14.23;;
14738;SDS011;7461;52.440;13.540;2023-09-08T01:15:35;15.23;;;14.15;;
14738;SDS011;7461;52.440;13.540;2023-09-08T01:18:03;15.77;;;14.73;;
14738;SDS011;7461;52.440;13.540;2023-09-08T01:20:31;13.77;;;12.88;;
14738;SDS011;7461;52.440;13.540;2023-09-08T01:23:08;14.40;;;13.27;;
14738;SDS011;7461;52.440;13.540;2023-09-08T01:25:40;15.68;;;14.68;;
14738;SDS011;7461;52.440;13.540;2023-09-08T01:28:09;15.70;;;14.70;;
14738;SDS011;7461;52.440;13.540;2023-09-08T01:30:38;14.35;;;13.35;;
14738;SDS011;7461;52.440;13.540;2023-09-08T01:33:05;14.80;;;13.70;;
14738;SDS011;7461;52.440;13.540;2023-09-08T01:35:33;16.33;;;15.32;;
14738;SDS011;7461;52.440;13.540;2023-09-08T01:38:01;18.08;;;16.58;;
14738;SDS011;7461;52.440;13.540;2023-09-08T01:40:28;16.77;;;15.57;;
14738;SDS011;7461;52.440;13.540;2023-09-08T01:42:57;16.42;;;15.20;;
14738;SDS011;7461;52.440;13.540;2023-09-08T01:45:24;17.10;;;16.00;;
14738;SDS011;7461;52.440;13.540;2023-09-08T01:47:52;15.80;;;14.80;;
14738;SDS011;7461;52.440;13.540;2023-09-08T01:50:19;17.98;;;16.40;;
14738;SDS011;7461;52.440;13.540;2023-09-08T01:52:46;15.32;;;14.38;;
14738;SDS011;7461;52.440;13.540;2023-09-08T01:55:14;16.63;;;15.32;;
14738;SDS011;7461;52.440;13.540;2023-09-08T01:57:41;18.13;;;17.13;;
14738;SDS011;7461;52.440;13.540;2023-09-08T02:00:10;16.48;;;15.48;;
14738;SDS011;7461;52.440;13.540;2023-09-08T02:02:38;16.23;;;15.13;;
14738;SDS011;7461;52.440;13.540;2023-09-08T02:05:08;17.85;;;16.60;;
14738;SDS011;7461;52.440;13.540;2023-09-08T02:07:35;17.75;;;16.33;;
14738;SDS011;7461;52.440;13.540;2023-09-08T02:10:02;16.23;;;15.13;;
14738;SDS011;7461;52.440;13.540;2023-09-08T02:12:30;16.33;;;15.27;;
14738;SDS011;7461;52.440;13.540;2023-09-08T02:14:57;17.08;;;15.88;;
14738;SDS011;7461;52.440;13.540;2023-09-08T02:17:26;19.52;;;17.90;;
14738;SDS011;7461;52.440;13.540;2023-09-08T02:19:53;17.58;;;16.27;;
14738;SDS011;7461;52.440;13.540;2023-09-08T02:22:20;17.92;;;16.73;;
14738;SDS011;7461;52.440;13.540;2023-09-08T02:24:48;18.40;;;17.35;;
14738;SDS011;7461;52.440;13.540;2023-09-08T02:27:17;17.85;;;16.65;;
14738;SDS011;7461;52.440;13.540;2023-09-08T02:29:44;17.75;;;16.60;;
14738;SDS011;7461;52.440;13.540;2023-09-08T02:32:11;20.38;;;18.65;;
14738;SDS011;7461;52.440;13.540;2023-09-08T02:34:41;17.10;;;15.75;;
14738;SDS011;7461;52.440;13.540;2023-09-08T02:37:08;18.70;;;17.40;;
14738;SDS011;7461;52.440;13.540;2023-09-08T02:39:36;17.52;;;16.30;;
14738;SDS011;7461;52.440;13.540;2023-09-08T02:42:03;18.38;;;17.13;;
14738;SDS011;7461;52.440;13.540;2023-09-08T02:44:31;16.73;;;15.57;;
14738;SDS011;7461;52.440;13.540;2023-09-08T02:46:58;18.40;;;16.85;;
14738;SDS011;7461;52.440;13.540;2023-09-08T02:49:26;16.30;;;15.30;;
14738;SDS011;7461;52.440;13.540;2023-09-08T02:51:54;17.15;;;16.02;;
14738;SDS011;7461;52.440;13.540;2023-09-08T02:54:22;17.52;;;16.42;;
14738;SDS011;7461;52.440;13.540;2023-09-08T02:56:49;19.30;;;17.88;;
14738;SDS011;7461;52.440;13.540;2023-09-08T02:59:16;18.83;;;17.70;;
14738;SDS011;7461;52.440;13.540;2023-09-08T03:01:44;18.63;;;17.15;;
14738;SDS011;7461;52.440;13.540;2023-09-08T03:04:11;18.48;;;17.15;;
14738;SDS011;7461;52.440;13.540;2023-09-08T03:06:39;19.77;;;18.45;;
14738;SDS011;7461;52.440;13.540;2023-09-08T03:09:07;18.02;;;16.92;;
14738;SDS011;7461;52.440;13.540;2023-09-08T03:11:35;19.33;;;17.73;;
14738;SDS011;7461;52.440;13.540;2023-09-08T03:14:02;20.27;;;18.88;;
14738;SDS011;7461;52.440;13.540;2023-09-08T03:16:29;18.98;;;17.67;;
14738;SDS011;7461;52.440;13.540;2023-09-08T03:18:57;17.27;;;16.17;;
14738;SDS011;7461;52.440;13.540;2023-09-08T03:21:24;17.83;;;16.58;;
14738;SDS011;7461;52.440;13.540;2023-09-08T03:23:51;19.88;;;18.58;;
14738;SDS011;7461;52.440;13.540;2023-09-08T03:26:20;18.20;;;16.98;;
14738;SDS011;7461;52.440;13.540;2023-09-08T03:28:47;18.95;;;17.75;;
14738;SDS011;7461;52.440;13.540;2023-09-08T03:31:15;19.48;;;17.90;;
14738;SDS011;7461;52.440;13.540;2023-09-08T03:33:43;18.60;;;17.40;;
14738;SDS011;7461;52.440;13.540;2023-09-08T03:36:10;20.25;;;18.95;;
14738;SDS011;7461;52.440;13.540;2023-09-08T03:38:37;19.20;;;17.80;;
14738;SDS011;7461;52.440;13.540;2023-09-08T03:41:06;19.48;;;17.88;;
14738;SDS011;7461;52.440;13.540;2023-09-08T03:43:37;18.70;;;17.33;;
14738;SDS011;7461;52.440;13.540;2023-09-08T03:46:04;20.08;;;18.70;;
14738;SDS011;7461;52.440;13.540;2023-09-08T03:48:32;18.90;;;17.70;;
14738;SDS011;7461;52.440;13.540;2023-09-08T03:50:59;20.15;;;18.52;;
14738;SDS011;7461;52.440;13.540;2023-09-08T03:53:26;19.02;;;17.55;;
14738;SDS011;7461;52.440;13.540;2023-09-08T03:55:53;19.40;;;18.10;;
14738;SDS011;7461;52.440;13.540;2023-09-08T03:58:21;20.10;;;18.80;;
14738;SDS011;7461;52.440;13.540;2023-09-08T04:00:50;20.05;;;18.70;;
14738;SDS011;7461;52.440;13.540;2023-09-08T04:03:17;20.20;;;18.77;;
14738;SDS011;7461;52.440;13.540;2023-09-08T04:05:44;21.48;;;20.05;;
14738;SDS011;7461;52.440;13.540;2023-09-08T04:08:12;21.42;;;19.88;;
14738;SDS011;7461;52.440;13.540;2023-09-08T04:10:42;19.50;;;18.17;;
14738;SDS011;7461;52.440;13.540;2023-09-08T04:13:17;23.52;;;21.38;;
14738;SDS011;7461;52.440;13.540;2023-09-08T04:15:46;23.08;;;21.13;;
14738;SDS011;7461;52.440;13.540;2023-09-08T04:18:15;23.83;;;22.05;;
14738;SDS011;7461;52.440;13.540;2023-09-08T04:20:42;24.50;;;22.77;;
14738;SDS011;7461;52.440;13.540;2023-09-08T04:23:10;22.30;;;20.80;;
14738;SDS011;7461;52.440;13.540;2023-09-08T04:25:37;23.23;;;21.63;;
14738;SDS011;7461;52.440;13.540;2023-09-08T04:28:04;24.25;;;22.42;;
14738;SDS011;7461;52.440;13.540;2023-09-08T04:30:32;23.38;;;21.83;;
14738;SDS011;7461;52.440;13.540;2023-09-08T04:32:59;23.88;;;21.88;;
14738;SDS011;7461;52.440;13.540;2023-09-08T04:35:28;22.10;;;20.50;;
14738;SDS011;7461;52.440;13.540;2023-09-08T04:38:05;22.35;;;20.52;;
14738;SDS011;7461;52.440;13.540;2023-09-08T04:40:53;24.10;;;22.02;;
14738;SDS011;7461;52.440;13.540;2023-09-08T04:46:23;22.10;;;20.80;;
14738;SDS011;7461;52.440;13.540;2023-09-08T04:48:56;24.10;;;22.30;;
14738;SDS011;7461;52.440;13.540;2023-09-08T04:51:42;25.23;;;22.83;;
14738;SDS011;7461;52.440;13.540;2023-09-08T04:54:13;24.58;;;22.92;;
14738;SDS011;7461;52.440;13.540;2023-09-08T04:56:58;23.50;;;22.00;;
14738;SDS011;7461;52.440;13.540;2023-09-08T04:59:45;25.08;;;23.02;;
14738;SDS011;7461;52.440;13.540;2023-09-08T05:02:24;27.80;;;25.85;;
14738;SDS011;7461;52.440;13.540;2023-09-08T05:04:53;23.50;;;22.00;;
14738;SDS011;7461;52.440;13.540;2023-09-08T05:07:30;24.90;;;23.08;;
14738;SDS011;7461;52.440;13.540;2023-09-08T05:10:10;26.00;;;24.25;;
14738;SDS011;7461;52.440;13.540;2023-09-08T05:12:59;25.60;;;23.90;;
14738;SDS011;7461;52.440;13.540;2023-09-08T05:15:52;25.70;;;24.00;;
14738;SDS011;7461;52.440;13.540;2023-09-08T05:18:36;26.08;;;24.27;;
14738;SDS011;7461;52.440;13.540;2023-09-08T05:30:13;23.55;;;22.10;;
14738;SDS011;7461;52.440;13.540;2023-09-08T05:33:17;24.27;;;22.75;;
14738;SDS011;7461;52.440;13.540;2023-09-08T05:45:50;23.20;;;21.70;;
14738;SDS011;7461;52.440;13.540;2023-09-08T05:51:48;24.17;;;22.48;;
14738;SDS011;7461;52.440;13.540;2023-09-08T05:57:34;22.75;;;21.35;;
14738;SDS011;7461;52.440;13.540;2023-09-08T06:01:05;24.08;;;22.45;;
14738;SDS011;7461;52.440;13.540;2023-09-08T06:03:43;22.73;;;21.02;;
14738;SDS011;7461;52.440;13.540;2023-09-08T06:06:17;21.92;;;20.52;;
14738;SDS011;7461;52.440;13.540;2023-09-08T06:09:09;22.75;;;20.85;;
14738;SDS011;7461;52.440;13.540;2023-09-08T06:15:03;22.00;;;20.55;;
14738;SDS011;7461;52.440;13.540;2023-09-08T06:30:15;20.05;;;18.65;;
14738;SDS011;7461;52.440;13.540;2023-09-08T06:33:40;21.48;;;19.95;;
14738;SDS011;7461;52.440;13.540;2023-09-08T06:39:28;20.10;;;18.60;;
14738;SDS011;7461;52.440;13.540;2023-09-08T06:45:27;21.40;;;19.05;;
14738;SDS011;7461;52.440;13.540;2023-09-08T06:48:09;18.23;;;16.80;;
14738;SDS011;7461;52.440;13.540;2023-09-08T06:50:41;18.55;;;16.98;;
14738;SDS011;7461;52.440;13.540;2023-09-08T06:53:22;21.20;;;19.55;;
14738;SDS011;7461;52.440;13.540;2023-09-08T06:56:08;19.00;;;17.27;;
14738;SDS011;7461;52.440;13.540;2023-09-08T06:58:55;19.08;;;17.15;;
14738;SDS011;7461;52.440;13.540;2023-09-08T07:01:26;17.08;;;16.00;;
14738;SDS011;7461;52.440;13.540;2023-09-08T07:03:59;16.92;;;15.70;;
14738;SDS011;7461;52.440;13.540;2023-09-08T07:06:27;17.13;;;15.93;;
14738;SDS011;7461;52.440;13.540;2023-09-08T07:09:17;17.05;;;15.85;;
14738;SDS011;7461;52.440;13.540;2023-09-08T07:11:44;17.75;;;16.35;;
14738;SDS011;7461;52.440;13.540;2023-09-08T07:16:59;17.17;;;16.08;;
14738;SDS011;7461;52.440;13.540;2023-09-08T07:19:28;15.90;;;14.90;;
14738;SDS011;7461;52.440;13.540;2023-09-08T07:22:05;17.45;;;16.25;;
14738;SDS011;7461;52.440;13.540;2023-09-08T07:24:48;17.92;;;16.48;;
14738;SDS011;7461;52.440;13.540;2023-09-08T07:27:24;15.65;;;14.52;;
14738;SDS011;7461;52.440;13.540;2023-09-08T07:30:18;17.73;;;16.25;;
14738;SDS011;7461;52.440;13.540;2023-09-08T07:33:01;17.65;;;16.35;;
14738;SDS011;7461;52.440;13.540;2023-09-08T07:35:33;16.55;;;15.50;;
14738;SDS011;7461;52.440;13.540;2023-09-08T07:38:14;16.02;;;14.93;;
14738;SDS011;7461;52.440;13.540;2023-09-08T07:40:46;15.73;;;14.55;;
14738;SDS011;7461;52.440;13.540;2023-09-08T07:43:15;15.77;;;14.68;;
14738;SDS011;7461;52.440;13.540;2023-09-08T07:46:00;16.48;;;15.55;;
14738;SDS011;7461;52.440;13.540;2023-09-08T07:48:38;15.57;;;14.68;;
14738;SDS011;7461;52.440;13.540;2023-09-08T07:51:32;15.95;;;14.85;;
14738;SDS011;7461;52.440;13.540;2023-09-08T07:54:04;16.15;;;15.05;;
14738;SDS011;7461;52.440;13.540;2023-09-08T07:56:58;16.08;;;14.85;;
14738;SDS011;7461;52.440;13.540;2023-09-08T07:59:49;15.65;;;14.52;;
14738;SDS011;7461;52.440;13.540;2023-09-08T08:02:36;14.68;;;13.25;;
14738;SDS011;7461;52.440;13.540;2023-09-08T08:05:12;15.90;;;14.45;;
14738;SDS011;7461;52.440;13.540;2023-09-08T08:08:00;14.32;;;13.40;;
14738;SDS011;7461;52.440;13.540;2023-09-08T08:10:33;14.52;;;13.52;;
14738;SDS011;7461;52.440;13.540;2023-09-08T08:13:15;14.75;;;13.65;;
14738;SDS011;7461;52.440;13.540;2023-09-08T08:15:44;15.73;;;14.63;;
14738;SDS011;7461;52.440;13.540;2023-09-08T08:18:17;13.93;;;12.90;;
14738;SDS011;7461;52.440;13.540;2023-09-08T08:20:55;12.60;;;11.30;;
14738;SDS011;7461;52.440;13.540;2023-09-08T08:23:49;14.30;;;13.20;;
14738;SDS011;7461;52.440;13.540;2023-09-08T08:26:23;15.05;;;14.00;;
14738;SDS011;7461;52.440;13.540;2023-09-08T08:28:53;14.85;;;13.63;;
14738;SDS011;7461;52.440;13.540;2023-09-08T08:31:28;13.48;;;12.00;;
14738;SDS011;7461;52.440;13.540;2023-09-08T08:34:15;14.18;;;12.93;;
14738;SDS011;7461;52.440;13.540;2023-09-08T08:36:44;14.70;;;13.60;;
14738;SDS011;7461;52.440;13.540;2023-09-08T08:39:17;14.52;;;13.15;;
14738;SDS011;7461;52.440;13.540;2023-09-08T08:41:54;13.18;;;12.13;;
14738;SDS011;7461;52.440;13.540;2023-09-08T08:44:23;15.05;;;13.35;;
14738;SDS011;7461;52.440;13.540;2023-09-08T08:47:04;14.40;;;13.30;;
14738;SDS011;7461;52.440;13.540;2023-09-08T08:49:33;13.25;;;12.50;;
14738;SDS011;7461;52.440;13.540;2023-09-08T08:52:12;12.15;;;11.15;;
14738;SDS011;7461;52.440;13.540;2023-09-08T08:54:46;13.15;;;12.27;;
14738;SDS011;7461;52.440;13.540;2023-09-08T08:57:18;11.23;;;10.57;;
14738;SDS011;7461;52.440;13.540;2023-09-08T08:59:45;11.80;;;10.88;;
14738;SDS011;7461;52.440;13.540;2023-09-08T09:02:14;13.25;;;12.25;;
14738;SDS011;7461;52.440;13.540;2023-09-08T09:04:42;11.90;;;11.00;;
14738;SDS011;7461;52.440;13.540;2023-09-08T09:07:14;12.82;;;12.02;;
14738;SDS011;7461;52.440;13.540;2023-09-08T09:09:44;11.70;;;10.82;;
14738;SDS011;7461;52.440;13.540;2023-09-08T09:12:12;12.20;;;11.45;;
14738;SDS011;7461;52.440;13.540;2023-09-08T09:14:44;13.20;;;12.30;;
14738;SDS011;7461;52.440;13.540;2023-09-08T09:17:23;11.73;;;10.75;;
14738;SDS011;7461;52.440;13.540;2023-09-08T09:19:53;11.70;;;10.82;;
14738;SDS011;7461;52.440;13.540;2023-09-08T09:22:50;10.30;;;9.43;;
14738;SDS011;7461;52.440;13.540;2023-09-08T09:25:21;10.68;;;9.77;;
14738;SDS011;7461;52.440;13.540;2023-09-08T09:27:53;10.73;;;9.93;;
14738;SDS011;7461;52.440;13.540;2023-09-08T09:30:25;9.70;;;8.85;;
14738;SDS011;7461;52.440;13.540;2023-09-08T09:33:02;10.55;;;9.65;;
14738;SDS011;7461;52.440;13.540;2023-09-08T09:35:39;11.45;;;10.32;;
14738;SDS011;7461;52.440;13.540;2023-09-08T09:38:12;10.55;;;9.73;;
14738;SDS011;7461;52.440;13.540;2023-09-08T09:40:40;10.52;;;9.82;;
14738;SDS011;7461;52.440;13.540;2023-09-08T09:43:10;9.73;;;9.13;;
14738;SDS011;7461;52.440;13.540;2023-09-08T09:45:45;9.57;;;8.68;;
14738;SDS011;7461;52.440;13.540;2023-09-08T09:48:13;10.60;;;9.80;;
14738;SDS011;7461;52.440;13.540;2023-09-08T09:50:41;10.45;;;9.60;;
14738;SDS011;7461;52.440;13.540;2023-09-08T09:53:14;10.45;;;9.50;;
14738;SDS011;7461;52.440;13.540;2023-09-08T09:55:46;9.18;;;8.60;;
14738;SDS011;7461;52.440;13.540;2023-09-08T09:58:14;10.82;;;10.13;;
14738;SDS011;7461;52.440;13.540;2023-09-08T10:00:54;9.80;;;9.07;;
14738;SDS011;7461;52.440;13.540;2023-09-08T10:03:28;10.30;;;9.52;;
14738;SDS011;7461;52.440;13.540;2023-09-08T10:06:03;10.25;;;9.40;;
14738;SDS011;7461;52.440;13.540;2023-09-08T10:08:39;10.40;;;9.63;;
14738;SDS011;7461;52.440;13.540;2023-09-08T10:11:09;11.55;;;10.63;;
14738;SDS011;7461;52.440;13.540;2023-09-08T10:13:39;10.80;;;9.80;;
14738;SDS011;7461;52.440;13.540;2023-09-08T10:16:09;10.38;;;9.57;;
14738;SDS011;7461;52.440;13.540;2023-09-08T10:18:40;9.23;;;8.50;;
14738;SDS011;7461;52.440;13.540;2023-09-08T10:21:08;9.73;;;9.02;;
14738;SDS011;7461;52.440;13.540;2023-09-08T10:23:41;9.55;;;8.85;;
14738;SDS011;7461;52.440;13.540;2023-09-08T10:26:10;10.00;;;9.32;;
14738;SDS011;7461;52.440;13.540;2023-09-08T10:28:51;8.35;;;7.80;;
14738;SDS011;7461;52.440;13.540;2023-09-08T10:31:21;10.00;;;9.38;;
14738;SDS011;7461;52.440;13.540;2023-09-08T10:36:36;10.00;;;9.32;;
14738;SDS011;7461;52.440;13.540;2023-09-08T10:47:41;9.50;;;8.90;;
14738;SDS011;7461;52.440;13.540;2023-09-08T10:50:28;10.32;;;9.63;;
14738;SDS011;7461;52.440;13.540;2023-09-08T10:53:07;10.23;;;9.32;;
14738;SDS011;7461;52.440;13.540;2023-09-08T10:55:36;8.85;;;8.35;;
14738;SDS011;7461;52.440;13.540;2023-09-08T10:58:06;9.50;;;8.95;;
14738;SDS011;7461;52.440;13.540;2023-09-08T11:00:44;8.60;;;8.00;;
14738;SDS011;7461;52.440;13.540;2023-09-08T11:03:25;9.02;;;8.35;;
14738;SDS011;7461;52.440;13.540;2023-09-08T11:05:53;9.40;;;8.68;;
14738;SDS011;7461;52.440;13.540;2023-09-08T11:08:21;8.38;;;7.85;;
14738;SDS011;7461;52.440;13.540;2023-09-08T11:10:51;8.50;;;8.00;;
14738;SDS011;7461;52.440;13.540;2023-09-08T11:13:18;9.38;;;8.68;;
14738;SDS011;7461;52.440;13.540;2023-09-08T11:15:50;9.40;;;8.80;;
14738;SDS011;7461;52.440;13.540;2023-09-08T11:18:34;9.45;;;8.68;;
14738;SDS011;7461;52.440;13.540;2023-09-08T11:21:07;8.15;;;7.55;;
14738;SDS011;7461;52.440;13.540;2023-09-08T11:23:35;8.40;;;7.60;;
14738;SDS011;7461;52.440;13.540;2023-09-08T11:26:02;9.45;;;8.85;;
14738;SDS011;7461;52.440;13.540;2023-09-08T11:28:31;9.10;;;8.50;;
14738;SDS011;7461;52.440;13.540;2023-09-08T11:31:00;11.50;;;9.48;;
14738;SDS011;7461;52.440;13.540;2023-09-08T11:33:34;8.57;;;7.97;;
14738;SDS011;7461;52.440;13.540;2023-09-08T11:36:11;8.65;;;8.15;;
14738;SDS011;7461;52.440;13.540;2023-09-08T11:38:39;9.23;;;8.55;;
14738;SDS011;7461;52.440;13.540;2023-09-08T11:44:14;7.68;;;6.95;;
14738;SDS011;7461;52.440;13.540;2023-09-08T11:47:06;8.32;;;7.82;;
14738;SDS011;7461;52.440;13.540;2023-09-08T11:49:58;8.52;;;8.02;;
14738;SDS011;7461;52.440;13.540;2023-09-08T11:52:49;8.65;;;8.05;;
14738;SDS011;7461;52.440;13.540;2023-09-08T11:55:49;8.30;;;7.60;;
14738;SDS011;7461;52.440;13.540;2023-09-08T11:58:38;8.60;;;7.90;;
14738;SDS011;7461;52.440;13.540;2023-09-08T12:01:21;9.48;;;8.88;;
14738;SDS011;7461;52.440;13.540;2023-09-08T12:03:56;8.05;;;7.65;;
14738;SDS011;7461;52.440;13.540;2023-09-08T12:06:36;9.15;;;8.45;;
14738;SDS011;7461;52.440;13.540;2023-09-08T12:09:09;7.80;;;7.30;;
14738;SDS011;7461;52.440;13.540;2023-09-08T12:11:52;8.70;;;8.05;;
14738;SDS011;7461;52.440;13.540;2023-09-08T12:14:39;7.85;;;7.35;;
14738;SDS011;7461;52.440;13.540;2023-09-08T12:17:11;7.90;;;7.45;;
14738;SDS011;7461;52.440;13.540;2023-09-08T12:19:43;8.88;;;8.02;;
14738;SDS011;7461;52.440;13.540;2023-09-08T12:22:13;8.25;;;7.75;;
14738;SDS011;7461;52.440;13.540;2023-09-08T12:24:46;8.18;;;7.57;;
14738;SDS011;7461;52.440;13.540;2023-09-08T12:27:18;7.97;;;7.18;;
14738;SDS011;7461;52.440;13.540;2023-09-08T12:32:47;8.43;;;7.75;;
14738;SDS011;7461;52.440;13.540;2023-09-08T12:35:21;7.45;;;6.95;;
14738;SDS011;7461;52.440;13.540;2023-09-08T12:37:56;8.45;;;7.75;;
14738;SDS011;7461;52.440;13.540;2023-09-08T12:40:39;7.88;;;7.38;;
14738;SDS011;7461;52.440;13.540;2023-09-08T12:43:10;8.45;;;7.95;;
14738;SDS011;7461;52.440;13.540;2023-09-08T12:45:37;8.35;;;7.60;;
14738;SDS011;7461;52.440;13.540;2023-09-08T12:48:11;8.70;;;8.02;;
14738;SDS011;7461;52.440;13.540;2023-09-08T12:50:51;9.52;;;7.70;;
14738;SDS011;7461;52.440;13.540;2023-09-08T12:53:26;8.80;;;8.15;;
14738;SDS011;7461;52.440;13.540;2023-09-08T12:55:54;8.15;;;7.65;;
14738;SDS011;7461;52.440;13.540;2023-09-08T12:58:21;7.90;;;7.40;;
14738;SDS011;7461;52.440;13.540;2023-09-08T13:00:50;8.43;;;7.90;;
14738;SDS011;7461;52.440;13.540;2023-09-08T13:03:22;8.40;;;7.70;;
14738;SDS011;7461;52.440;13.540;2023-09-08T13:08:54;8.07;;;7.57;;
14738;SDS011;7461;52.440;13.540;2023-09-08T13:14:58;9.13;;;8.50;;
14738;SDS011;7461;52.440;13.540;2023-09-08T13:20:44;8.40;;;7.80;;
14738;SDS011;7461;52.440;13.540;2023-09-08T13:26:08;8.00;;;7.50;;
14738;SDS011;7461;52.440;13.540;2023-09-08T13:28:38;8.85;;;8.00;;
14738;SDS011;7461;52.440;13.540;2023-09-08T13:31:15;7.93;;;7.38;;
14738;SDS011;7461;52.440;13.540;2023-09-08T13:34:07;7.88;;;7.28;;
14738;SDS011;7461;52.440;13.540;2023-09-08T13:36:48;8.40;;;7.72;;
14738;SDS011;7461;52.440;13.540;2023-09-08T13:39:32;8.10;;;7.60;;
14738;SDS011;7461;52.440;13.540;2023-09-08T13:48:09;7.40;;;6.70;;
14738;SDS011;7461;52.440;13.540;2023-09-08T13:53:59;7.80;;;7.38;;
14738;SDS011;7461;52.440;13.540;2023-09-08T13:56:29;8.93;;;8.05;;
14738;SDS011;7461;52.440;13.540;2023-09-08T13:58:59;8.52;;;7.75;;
14738;SDS011;7461;52.440;13.540;2023-09-08T14:01:28;8.02;;;7.43;;
14738;SDS011;7461;52.440;13.540;2023-09-08T14:07:11;9.95;;;9.05;;
14738;SDS011;7461;52.440;13.540;2023-09-08T14:09:47;8.60;;;8.10;;
14738;SDS011;7461;52.440;13.540;2023-09-08T14:12:18;9.30;;;8.77;;
14738;SDS011;7461;52.440;13.540;2023-09-08T14:14:48;7.57;;;7.00;;
14738;SDS011;7461;52.440;13.540;2023-09-08T14:17:29;23.35;;;21.70;;
14738;SDS011;7461;52.440;13.540;2023-09-08T14:20:06;8.35;;;7.55;;
14738;SDS011;7461;52.440;13.540;2023-09-08T14:22:44;10.80;;;10.00;;
14738;SDS011;7461;52.440;13.540;2023-09-08T14:25:16;10.20;;;9.50;;
14738;SDS011;7461;52.440;13.540;2023-09-08T14:27:50;11.63;;;7.88;;
14738;SDS011;7461;52.440;13.540;2023-09-08T14:45:58;8.23;;;7.60;;
14738;SDS011;7461;52.440;13.540;2023-09-08T15:01:03;9.23;;;8.43;;
14738;SDS011;7461;52.440;13.540;2023-09-08T15:04:49;9.23;;;8.45;;
14738;SDS011;7461;52.440;13.540;2023-09-08T15:06:42;8.88;;;8.00;;
14738;SDS011;7461;52.440;13.540;2023-09-08T20:17:59;16.20;;;15.15;;
14738;SDS011;7461;52.440;13.540;2023-09-08T20:20:31;16.05;;;14.98;;
14738;SDS011;7461;52.440;13.540;2023-09-08T20:23:19;19.35;;;18.13;;
14738;SDS011;7461;52.440;13.540;2023-09-08T20:25:58;18.50;;;17.30;;
14738;SDS011;7461;52.440;13.540;2023-09-08T20:28:36;19.95;;;18.52;;
14738;SDS011;7461;52.440;13.540;2023-09-08T20:31:18;16.77;;;15.48;;
14738;SDS011;7461;52.440;13.540;2023-09-08T20:36:41;17.05;;;16.05;;
14738;SDS011;7461;52.440;13.540;2023-09-08T20:39:11;17.90;;;16.75;;
14738;SDS011;7461;52.440;13.540;2023-09-08T20:41:51;19.52;;;18.10;;
14738;SDS011;7461;52.440;13.540;2023-09-08T20:47:52;16.65;;;15.65;;
14738;SDS011;7461;52.440;13.540;2023-09-08T20:50:24;16.17;;;15.15;;
14738;SDS011;7461;52.440;13.540;2023-09-08T20:59:02;18.20;;;16.92;;
14738;SDS011;7461;52.440;13.540;2023-09-08T21:01:59;19.08;;;17.40;;
14738;SDS011;7461;52.440;13.540;2023-09-08T21:04:56;17.23;;;15.77;;
14738;SDS011;7461;52.440;13.540;2023-09-08T21:07:40;16.85;;;15.82;;
14738;SDS011;7461;52.440;13.540;2023-09-08T21:13:05;16.65;;;15.45;;
14738;SDS011;7461;52.440;13.540;2023-09-08T21:15:41;17.45;;;15.95;;
14738;SDS011;7461;52.440;13.540;2023-09-08T21:18:22;18.67;;;17.27;;
14738;SDS011;7461;52.440;13.540;2023-09-08T21:21:12;18.85;;;17.23;;
14738;SDS011;7461;52.440;13.540;2023-09-08T21:23:46;17.63;;;16.52;;
14738;SDS011;7461;52.440;13.540;2023-09-08T21:26:16;17.92;;;16.55;;
14738;SDS011;7461;52.440;13.540;2023-09-08T21:28:44;17.40;;;16.30;;
14738;SDS011;7461;52.440;13.540;2023-09-08T21:31:16;16.52;;;15.25;;
14738;SDS011;7461;52.440;13.540;2023-09-08T21:33:46;17.92;;;16.23;;
14738;SDS011;7461;52.440;13.540;2023-09-08T21:36:16;17.20;;;16.10;;
14738;SDS011;7461;52.440;13.540;2023-09-08T21:38:46;17.88;;;16.38;;
14738;SDS011;7461;52.440;13.540;2023-09-08T21:41:13;17.30;;;15.82;;
14738;SDS011;7461;52.440;13.540;2023-09-08T21:43:41;18.33;;;17.13;;
14738;SDS011;7461;52.440;13.540;2023-09-08T21:46:10;18.75;;;17.45;;
14738;SDS011;7461;52.440;13.540;2023-09-08T21:48:39;19.88;;;18.50;;
14738;SDS011;7461;52.440;13.540;2023-09-08T21:51:09;18.02;;;16.90;;
14738;SDS011;7461;52.440;13.540;2023-09-08T21:53:37;16.90;;;15.82;;
14738;SDS011;7461;52.440;13.540;2023-09-08T21:56:10;18.92;;;17.73;;
14738;SDS011;7461;52.440;13.540;2023-09-08T21:58:40;19.13;;;18.02;;
14738;SDS011;7461;52.440;13.540;2023-09-08T22:01:07;19.73;;;18.52;;
14738;SDS011;7461;52.440;13.540;2023-09-08T22:03:52;20.40;;;19.00;;
14738;SDS011;7461;52.440;13.540;2023-09-08T22:06:23;19.13;;;17.80;;
14738;SDS011;7461;52.440;13.540;2023-09-08T22:08:51;21.17;;;19.40;;
14738;SDS011;7461;52.440;13.540;2023-09-08T22:11:18;19.20;;;18.00;;
14738;SDS011;7461;52.440;13.540;2023-09-08T22:13:46;18.88;;;17.58;;
14738;SDS011;7461;52.440;13.540;2023-09-08T22:16:13;19.52;;;18.23;;
14738;SDS011;7461;52.440;13.540;2023-09-08T22:18:46;18.48;;;17.05;;
14738;SDS011;7461;52.440;13.540;2023-09-08T22:21:17;18.98;;;17.77;;
14738;SDS011;7461;52.440;13.540;2023-09-08T22:23:49;19.15;;;17.85;;
14738;SDS011;7461;52.440;13.540;2023-09-08T22:26:17;20.83;;;19.30;;
14738;SDS011;7461;52.440;13.540;2023-09-08T22:28:47;18.58;;;17.48;;
14738;SDS011;7461;52.440;13.540;2023-09-08T22:31:15;19.63;;;18.05;;
14738;SDS011;7461;52.440;13.540;2023-09-08T22:33:42;20.50;;;19.02;;